5C5 weather

El Capitan Lodge Seaplane Base
Craig, Alaska, United States

Public forecast

Using degrees Fahrenheit for public forecast. Weather courtesy of forecast.io.

METAR (pilot weather report)

Closest report is Klawock Airport, 23.6 nm (43.6 km) SSE. Retrieved 2019/07/21 00:53 UTC (31 minutes ago):

PAKW 210053Z AUTO 14004KT 10SM SCT029 OVC047 15/14 A3014 RMK RAE2356B14E34 SLP207 P0000 T01500144 TSNO VIA AUTODIAL

TAF (pilot weather forecast)

Forecast is more than 12 hours old.

Closest forecast is Klawock Airport, 23.6 nm (43.6 km) SSE. Retrieved 2019/07/20 00:36 UTC (1 day ago):

TAF PAKW 202334Z 2100/2124 VRB05KT P6SM SCT025 OVC070 TEMPO 2100/2103 3SM -SHRA BR BKN025 FM211000 00000KT 1SM BR BKN002 FM211600 21005KT P6SM FEW010 AMD LTD TO CLD VIS AND WIND